Time;durP1;ratioP1;P1;durP2;ratioP2;P2;SDS_P1;SDS_P2;PMS_P1;PMS_P2;Temp;Humidity;BMP_temperature;BMP_pressure;BME280_temperature;BME280_humidity;BME280_pressure;Samples;Min_cycle;Max_cycle;Signal;HPM_P1;HPM_P2
2023/10/19 00:01:55;;;;;;;17.37;8.37;;;11.60;98.00;;;;;;5092640;28;20490;-68
2023/10/19 00:04:22;;;;;;;22.50;9.40;;;11.70;98.00;;;;;;5093108;28;20462;-68
2023/10/19 00:06:48;;;;;;;17.00;8.43;;;11.70;98.00;;;;;;5093951;28;20453;-67
2023/10/19 00:09:16;;;;;;;17.57;8.20;;;11.70;98.00;;;;;;5093991;28;20947;-68
2023/10/19 00:11:42;;;;;;;22.10;10.10;;;11.70;98.00;;;;;;5093849;28;20887;-68
2023/10/19 00:14:15;;;;;;;20.43;8.83;;;11.70;98.00;;;;;;5093631;28;20466;-68
2023/10/19 00:16:49;;;;;;;18.80;8.73;;;11.70;98.00;;;;;;5093727;28;20467;-68
2023/10/19 00:19:19;;;;;;;16.77;8.30;;;11.60;98.00;;;;;;5076329;28;20495;-68
2023/10/19 00:21:50;;;;;;;17.77;8.20;;;11.70;98.00;;;;;;5092270;28;20487;-68
2023/10/19 00:24:19;;;;;;;18.00;8.87;;;11.70;98.00;;;;;;5093456;28;20486;-68
2023/10/19 00:26:48;;;;;;;21.40;8.23;;;11.70;98.00;;;;;;5093370;28;20463;-68
2023/10/19 00:29:30;;;;;;;16.27;7.90;;;11.80;98.00;;;;;;5093282;28;20444;-68
2023/10/19 00:31:59;;;;;;;16.47;7.60;;;11.80;98.00;;;;;;5093428;28;20464;-68
2023/10/19 00:34:28;;;;;;;18.93;8.90;;;11.90;98.00;;;;;;5093153;28;20505;-68
2023/10/19 00:36:55;;;;;;;17.17;8.60;;;12.00;98.00;;;;;;5093050;28;20452;-68
2023/10/19 00:39:23;;;;;;;15.90;8.30;;;11.90;98.00;;;;;;5093005;28;20467;-68
2023/10/19 00:41:53;;;;;;;15.30;6.70;;;11.80;98.00;;;;;;5093044;28;20540;-68
2023/10/19 00:44:25;;;;;;;22.83;8.90;;;11.70;98.00;;;;;;5093087;28;20451;-68
2023/10/19 00:47:00;;;;;;;16.87;8.30;;;11.70;98.00;;;;;;5092006;28;20805;-68
2023/10/19 00:49:29;;;;;;;17.37;8.10;;;11.80;98.00;;;;;;5092860;28;20560;-68
2023/10/19 00:52:03;;;;;;;17.90;8.50;;;11.80;98.00;;;;;;5092891;28;20460;-68
2023/10/19 00:54:35;;;;;;;18.23;9.43;;;11.90;98.00;;;;;;5091579;28;20577;-68
2023/10/19 00:57:06;;;;;;;18.60;8.53;;;12.10;98.00;;;;;;5092954;28;20448;-68
2023/10/19 00:59:38;;;;;;;20.87;9.10;;;12.10;98.00;;;;;;5092798;28;20609;-68
2023/10/19 01:02:17;;;;;;;16.43;7.87;;;11.90;98.00;;;;;;5092506;28;20541;-67
2023/10/19 01:04:50;;;;;;;20.63;8.03;;;12.00;98.00;;;;;;5092799;28;20516;-68
2023/10/19 01:07:22;;;;;;;16.00;7.60;;;11.90;98.00;;;;;;5092895;28;20812;-68
2023/10/19 01:09:52;;;;;;;19.80;9.00;;;12.00;98.00;;;;;;5092719;28;20464;-68
2023/10/19 01:12:32;;;;;;;14.73;7.67;;;12.00;98.00;;;;;;5092553;28;20485;-68
2023/10/19 01:15:12;;;;;;;20.13;8.07;;;11.90;98.00;;;;;;5092689;28;20452;-68
2023/10/19 01:17:44;;;;;;;17.60;8.37;;;12.10;98.00;;;;;;5092588;28;20458;-68
2023/10/19 01:20:22;;;;;;;18.83;8.80;;;12.20;98.00;;;;;;5092552;28;20490;-67
2023/10/19 01:23:06;;;;;;;16.97;8.13;;;12.10;98.00;;;;;;5092436;28;20486;-68
2023/10/19 01:25:36;;;;;;;21.37;8.83;;;11.90;98.00;;;;;;5092326;28;20488;-68
2023/10/19 01:28:08;;;;;;;18.93;8.80;;;11.90;98.00;;;;;;5092235;28;20498;-68
2023/10/19 01:30:36;;;;;;;18.37;8.47;;;11.80;98.00;;;;;;5092305;28;20568;-67
2023/10/19 01:33:04;;;;;;;19.30;8.90;;;11.90;98.00;;;;;;5092258;28;20542;-67
2023/10/19 01:36:10;;;;;;;16.90;8.50;;;11.90;98.00;;;;;;5091790;28;20456;-67
2023/10/19 01:38:20;;;;;;;18.63;8.30;;;12.10;98.00;;;;;;5091857;28;20457;-68
2023/10/19 01:40:48;;;;;;;19.63;7.83;;;12.00;98.00;;;;;;5091972;28;20544;-68
2023/10/19 01:43:20;;;;;;;19.37;8.67;;;11.90;98.00;;;;;;5091986;28;20508;-68
2023/10/19 01:45:48;;;;;;;15.37;7.03;;;11.90;98.00;;;;;;5091838;28;20461;-68
2023/10/19 01:48:16;;;;;;;16.30;7.70;;;11.90;98.00;;;;;;5090699;28;20459;-68
2023/10/19 01:50:43;;;;;;;16.60;8.27;;;11.90;98.00;;;;;;5091865;28;20484;-68
2023/10/19 01:53:15;;;;;;;18.60;7.93;;;11.90;98.00;;;;;;5091700;28;20945;-68
2023/10/19 01:55:47;;;;;;;16.37;7.47;;;11.90;98.00;;;;;;5091646;28;20542;-68
2023/10/19 01:58:14;;;;;;;17.73;8.20;;;11.90;98.00;;;;;;5091723;28;20455;-68
2023/10/19 02:00:43;;;;;;;17.73;8.53;;;12.10;98.00;;;;;;5091788;28;20456;-68
2023/10/19 02:03:09;;;;;;;15.60;7.70;;;12.10;98.00;;;;;;5091449;28;20484;-68
2023/10/19 02:05:41;;;;;;;15.23;7.77;;;12.20;98.00;;;;;;5091303;28;20464;-67
2023/10/19 02:08:08;;;;;;;15.90;8.27;;;12.30;98.00;;;;;;5091567;28;20451;-68
2023/10/19 02:10:37;;;;;;;14.13;7.10;;;12.20;98.00;;;;;;5090320;28;20458;-67
2023/10/19 02:13:10;;;;;;;14.70;6.87;;;12.10;98.00;;;;;;5091675;28;20453;-68
2023/10/19 02:15:38;;;;;;;16.73;7.10;;;12.10;98.00;;;;;;5091658;28;20456;-68
2023/10/19 02:18:05;;;;;;;15.43;7.17;;;12.10;98.00;;;;;;5090351;28;20500;-68
2023/10/19 02:20:32;;;;;;;18.90;8.17;;;12.00;98.00;;;;;;5091397;28;20464;-68
2023/10/19 02:22:58;;;;;;;12.80;7.10;;;12.10;98.00;;;;;;5091403;28;21019;-68
2023/10/19 02:25:31;;;;;;;15.77;7.87;;;12.10;98.00;;;;;;5091238;28;20468;-68
2023/10/19 02:27:57;;;;;;;14.77;7.53;;;12.10;98.00;;;;;;5090949;28;20476;-68
2023/10/19 02:30:25;;;;;;;16.87;8.40;;;12.10;98.00;;;;;;5091199;28;20466;-67
2023/10/19 02:32:53;;;;;;;21.83;8.10;;;12.20;98.00;;;;;;5090104;28;20459;-68
2023/10/19 02:35:19;;;;;;;14.00;6.90;;;12.20;98.00;;;;;;5091186;28;20452;-68
2023/10/19 02:37:47;;;;;;;16.27;7.20;;;12.10;98.00;;;;;;5091332;28;20460;-67
2023/10/19 02:40:19;;;;;;;16.17;7.30;;;12.20;98.00;;;;;;5091084;28;20945;-68
2023/10/19 02:42:48;;;;;;;15.40;7.60;;;12.20;98.00;;;;;;5091180;28;21001;-68
2023/10/19 02:45:15;;;;;;;17.03;8.20;;;12.20;98.00;;;;;;5091067;28;20530;-68
2023/10/19 02:47:45;;;;;;;16.13;7.57;;;12.20;98.00;;;;;;5091265;28;20877;-68
2023/10/19 02:50:13;;;;;;;14.17;6.67;;;12.20;98.00;;;;;;5091102;28;20486;-68
2023/10/19 02:52:45;;;;;;;13.47;7.20;;;12.20;98.00;;;;;;5091400;28;20821;-68
2023/10/19 02:55:11;;;;;;;14.40;7.27;;;12.10;98.00;;;;;;5091329;28;20482;-68
2023/10/19 02:57:38;;;;;;;14.93;7.00;;;12.10;98.00;;;;;;5091496;28;20457;-67
2023/10/19 03:00:11;;;;;;;16.77;7.80;;;12.10;98.00;;;;;;5091278;28;20462;-68
2023/10/19 03:02:39;;;;;;;14.17;7.17;;;12.20;98.00;;;;;;5091164;28;20485;-68
2023/10/19 03:05:13;;;;;;;17.30;7.90;;;12.20;98.00;;;;;;5090963;28;21021;-68
2023/10/19 03:07:43;;;;;;;16.27;7.43;;;12.20;98.00;;;;;;5091096;28;20537;-68
2023/10/19 03:10:23;;;;;;;16.60;8.00;;;12.10;98.00;;;;;;5090764;28;20477;-68
2023/10/19 03:12:50;;;;;;;15.90;7.50;;;12.00;98.00;;;;;;5089964;28;20574;-68
2023/10/19 03:15:21;;;;;;;14.13;7.60;;;12.00;98.00;;;;;;5090773;28;20506;-67
2023/10/19 03:17:47;;;;;;;14.63;6.87;;;11.90;98.00;;;;;;5090935;28;20704;-68
2023/10/19 03:20:17;;;;;;;16.63;7.90;;;12.00;98.00;;;;;;5090788;28;20811;-68
2023/10/19 03:22:43;;;;;;;13.73;5.90;;;11.90;98.00;;;;;;5091054;28;20484;-68
2023/10/19 03:25:48;;;;;;;13.10;6.93;;;11.80;98.00;;;;;;5090757;28;20826;-68
2023/10/19 03:28:08;;;;;;;16.03;7.40;;;11.80;98.00;;;;;;5090759;28;20458;-68
2023/10/19 03:30:38;;;;;;;16.30;7.77;;;11.70;98.00;;;;;;5090730;28;20464;-68
2023/10/19 03:33:08;;;;;;;12.77;6.70;;;11.70;98.00;;;;;;5090745;28;20453;-68
2023/10/19 03:35:41;;;;;;;15.63;6.83;;;11.70;98.00;;;;;;5090593;28;20466;-68
2023/10/19 03:38:14;;;;;;;13.67;6.17;;;11.70;98.00;;;;;;5090849;28;20818;-67
2023/10/19 03:40:46;;;;;;;17.20;7.50;;;11.60;98.00;;;;;;5092783;28;20943;-67
2023/10/19 03:43:21;;;;;;;14.00;7.47;;;11.50;98.00;;;;;;5094181;28;20480;-68
2023/10/19 03:45:51;;;;;;;15.93;7.30;;;11.50;98.00;;;;;;5094186;28;20454;-67
2023/10/19 03:48:23;;;;;;;15.17;6.70;;;11.50;98.00;;;;;;5094012;28;20534;-68
2023/10/19 03:51:02;;;;;;;14.33;7.07;;;11.40;98.00;;;;;;5094223;28;20484;-68
2023/10/19 03:53:28;;;;;;;14.37;6.70;;;11.30;98.00;;;;;;5092942;28;20486;-68
2023/10/19 03:55:55;;;;;;;14.13;7.10;;;11.30;98.00;;;;;;5094015;28;20461;-67
2023/10/19 03:58:22;;;;;;;12.80;6.10;;;11.30;98.00;;;;;;5093868;28;20457;-68
2023/10/19 04:00:52;;;;;;;14.47;7.70;;;11.30;98.00;;;;;;5094011;28;20450;-68
2023/10/19 04:03:24;;;;;;;11.97;6.37;;;11.30;98.00;;;;;;5093809;28;20491;-68
2023/10/19 04:05:51;;;;;;;11.67;6.37;;;11.30;98.00;;;;;;5094066;28;20527;-68
2023/10/19 04:08:26;;;;;;;13.43;6.90;;;11.30;98.00;;;;;;5075834;28;20482;-68
2023/10/19 04:13:34;;;;;;;19.03;7.00;;;11.40;98.00;;;;;;5092460;28;20458;-68
2023/10/19 04:16:01;;;;;;;16.60;7.50;;;11.50;98.00;;;;;;5093764;28;20449;-68
2023/10/19 04:18:28;;;;;;;15.10;6.57;;;11.70;98.00;;;;;;5093565;28;20456;-68
2023/10/19 04:20:56;;;;;;;15.10;6.87;;;11.60;98.00;;;;;;5092392;28;20458;-68
2023/10/19 04:23:28;;;;;;;13.60;6.57;;;11.50;98.00;;;;;;5093480;28;20545;-68
2023/10/19 04:25:58;;;;;;;20.27;7.07;;;11.40;98.00;;;;;;5093061;28;20458;-67
2023/10/19 04:28:37;;;;;;;16.97;6.60;;;11.30;98.00;;;;;;5093448;28;20484;-67
2023/10/19 04:31:06;;;;;;;12.90;6.50;;;11.20;98.00;;;;;;5092440;28;20522;-68
2023/10/19 04:33:34;;;;;;;22.53;9.40;;;11.00;98.00;;;;;;5093446;28;20460;-68
2023/10/19 04:36:02;;;;;;;19.57;8.33;;;10.90;98.00;;;;;;5093553;28;20462;-67
2023/10/19 04:38:33;;;;;;;18.87;8.33;;;10.90;98.00;;;;;;5093554;28;20542;-68
2023/10/19 04:41:08;;;;;;;16.10;7.67;;;11.00;98.00;;;;;;5093868;28;20446;-68
2023/10/19 04:43:36;;;;;;;13.57;6.60;;;11.00;98.00;;;;;;5093181;28;20526;-67
2023/10/19 04:46:10;;;;;;;14.90;7.03;;;11.00;98.00;;;;;;5093156;28;20497;-68
2023/10/19 04:48:39;;;;;;;15.90;7.43;;;11.00;98.00;;;;;;5093097;28;20444;-68
2023/10/19 04:51:09;;;;;;;22.07;9.00;;;10.90;98.00;;;;;;5092477;28;20449;-68
2023/10/19 04:53:37;;;;;;;19.13;7.47;;;10.90;98.00;;;;;;5092821;28;20446;-68
2023/10/19 04:56:08;;;;;;;19.07;8.50;;;10.80;98.00;;;;;;5092874;28;21004;-67
2023/10/19 04:58:36;;;;;;;17.20;8.00;;;10.80;98.00;;;;;;5093005;28;20462;-68
2023/10/19 05:01:03;;;;;;;13.33;6.80;;;10.80;98.00;;;;;;5092712;28;20531;-68
2023/10/19 05:03:30;;;;;;;12.90;6.27;;;11.00;98.00;;;;;;5092586;28;20585;-68
2023/10/19 05:05:58;;;;;;;17.50;7.60;;;11.00;98.00;;;;;;5092582;28;20450;-68
2023/10/19 05:08:27;;;;;;;15.57;7.43;;;11.00;98.00;;;;;;5092558;28;20938;-68
2023/10/19 05:10:59;;;;;;;22.07;8.80;;;11.00;98.00;;;;;;5092750;28;20581;-67
2023/10/19 05:13:27;;;;;;;20.47;7.70;;;11.10;98.00;;;;;;5092503;28;20487;-68
2023/10/19 05:15:55;;;;;;;13.93;6.60;;;11.10;98.00;;;;;;5092396;28;20450;-68
2023/10/19 05:18:23;;;;;;;15.47;7.10;;;11.10;98.00;;;;;;5092396;28;20482;-68
2023/10/19 05:20:55;;;;;;;22.33;6.97;;;11.20;98.00;;;;;;5091205;28;20449;-68
2023/10/19 05:23:23;;;;;;;18.03;7.50;;;11.30;98.00;;;;;;5091113;28;20487;-67
2023/10/19 05:25:52;;;;;;;15.83;7.10;;;11.20;98.00;;;;;;5092275;28;20855;-68
2023/10/19 05:28:21;;;;;;;14.53;6.40;;;11.10;98.00;;;;;;5092126;28;20840;-68
2023/10/19 05:30:49;;;;;;;13.50;6.30;;;11.20;98.00;;;;;;5092411;28;20444;-68
2023/10/19 05:33:20;;;;;;;14.73;6.90;;;11.30;98.00;;;;;;5092352;28;20455;-68
2023/10/19 05:35:47;;;;;;;16.73;7.70;;;11.30;98.00;;;;;;5092203;28;20538;-68
2023/10/19 05:38:15;;;;;;;13.73;6.37;;;11.30;98.00;;;;;;5092027;28;20858;-67
2023/10/19 05:40:43;;;;;;;11.70;6.30;;;11.20;98.00;;;;;;5092008;28;20448;-67
2023/10/19 05:43:10;;;;;;;11.60;5.67;;;11.10;98.00;;;;;;5091918;28;20580;-68
2023/10/19 05:45:38;;;;;;;11.60;5.83;;;11.10;98.00;;;;;;5091755;28;20451;-67
2023/10/19 05:48:07;;;;;;;13.93;6.27;;;11.10;98.00;;;;;;5091881;28;20451;-68
2023/10/19 05:50:34;;;;;;;9.50;5.43;;;11.10;98.00;;;;;;5091706;28;20486;-68
2023/10/19 05:53:04;;;;;;;11.00;5.67;;;11.00;98.00;;;;;;5092201;28;20463;-68
2023/10/19 05:55:31;;;;;;;12.70;6.43;;;11.10;98.00;;;;;;5091730;28;20962;-68
2023/10/19 05:58:01;;;;;;;13.00;6.30;;;11.20;98.00;;;;;;5091687;28;20450;-62
2023/10/19 06:00:28;;;;;;;16.03;7.47;;;11.30;98.00;;;;;;5091620;28;20448;-63
2023/10/19 06:02:57;;;;;;;14.10;6.73;;;11.20;98.00;;;;;;5089493;28;20486;-63
2023/10/19 06:05:25;;;;;;;14.50;6.97;;;11.10;98.00;;;;;;5073856;28;20491;-63
2023/10/19 06:07:52;;;;;;;13.23;7.10;;;11.10;98.00;;;;;;5057059;28;20507;-63
2023/10/19 06:10:22;;;;;;;15.93;7.60;;;11.10;98.00;;;;;;5091530;28;20485;-63
2023/10/19 06:12:50;;;;;;;17.77;7.50;;;11.10;98.00;;;;;;5091589;28;20840;-63
2023/10/19 06:15:20;;;;;;;14.60;6.90;;;11.00;98.00;;;;;;5090395;28;20868;-63
2023/10/19 06:17:49;;;;;;;15.20;7.30;;;11.00;98.00;;;;;;5090505;28;20455;-63
2023/10/19 06:20:26;;;;;;;16.43;8.03;;;11.00;98.00;;;;;;5090301;28;20450;-64
2023/10/19 06:22:55;;;;;;;17.30;7.40;;;11.10;98.00;;;;;;5091725;28;20488;-62
2023/10/19 06:25:23;;;;;;;19.00;6.90;;;11.20;98.00;;;;;;5090315;28;20455;-64
2023/10/19 06:27:52;;;;;;;12.33;6.77;;;11.30;98.00;;;;;;5090280;28;20486;-63
2023/10/19 06:30:22;;;;;;;14.23;6.60;;;11.30;98.00;;;;;;5091227;28;20452;-63
2023/10/19 06:32:51;;;;;;;15.20;7.40;;;11.30;98.00;;;;;;5091421;28;20442;-63
2023/10/19 06:35:20;;;;;;;14.00;7.00;;;11.30;98.00;;;;;;5091064;28;20463;-63
2023/10/19 06:37:49;;;;;;;16.30;8.10;;;11.40;98.00;;;;;;5091333;28;20449;-63
2023/10/19 06:40:17;;;;;;;15.47;7.27;;;11.40;98.00;;;;;;5091264;28;20501;-63
2023/10/19 06:42:45;;;;;;;13.20;6.13;;;11.40;98.00;;;;;;5091249;28;20489;-63
2023/10/19 06:45:13;;;;;;;14.90;6.67;;;11.40;98.00;;;;;;5091237;28;20462;-64
2023/10/19 06:47:42;;;;;;;12.83;6.60;;;11.40;98.00;;;;;;5090075;28;20497;-63
2023/10/19 06:50:11;;;;;;;14.77;7.40;;;11.60;98.00;;;;;;5091183;28;20436;-63
2023/10/19 06:52:39;;;;;;;11.87;6.23;;;11.70;98.00;;;;;;5091201;28;21015;-63
2023/10/19 06:55:13;;;;;;;15.03;6.70;;;11.60;98.00;;;;;;5091050;28;20448;-63
2023/10/19 06:57:40;;;;;;;12.67;6.63;;;11.60;98.00;;;;;;5090908;28;20933;-63
2023/10/19 07:00:14;;;;;;;13.60;6.60;;;11.70;98.00;;;;;;5090979;28;20612;-63
2023/10/19 07:02:42;;;;;;;16.00;7.60;;;11.70;98.00;;;;;;5090828;28;20512;-63
2023/10/19 07:05:11;;;;;;;18.33;8.10;;;11.70;98.00;;;;;;5089782;28;20455;-63
2023/10/19 07:07:42;;;;;;;14.47;7.53;;;11.70;98.00;;;;;;5090661;28;20489;-63
2023/10/19 07:10:12;;;;;;;10.70;5.37;;;11.70;98.00;;;;;;5090908;28;20535;-63
2023/10/19 07:12:39;;;;;;;15.17;7.67;;;11.70;98.00;;;;;;5090998;28;20811;-64
2023/10/19 07:15:08;;;;;;;12.03;6.60;;;11.80;98.00;;;;;;5093777;28;20448;-63
2023/10/19 07:17:38;;;;;;;13.37;7.07;;;11.70;98.00;;;;;;5095008;28;20592;-63
2023/10/19 07:20:08;;;;;;;12.10;6.70;;;11.70;98.00;;;;;;5094748;28;20556;-63
2023/10/19 07:22:38;;;;;;;14.00;7.30;;;11.60;98.00;;;;;;5094655;28;20533;-64
2023/10/19 07:25:08;;;;;;;19.30;8.63;;;11.50;98.00;;;;;;5094718;28;20941;-63
2023/10/19 07:27:36;;;;;;;20.83;8.07;;;11.60;98.00;;;;;;5094474;28;20461;-63
2023/10/19 07:30:06;;;;;;;18.73;8.80;;;11.70;98.00;;;;;;5094539;28;20902;-63
2023/10/19 07:32:33;;;;;;;18.53;7.93;;;11.70;98.00;;;;;;5093325;28;20452;-63
2023/10/19 07:35:00;;;;;;;16.03;6.90;;;11.60;98.00;;;;;;5094470;28;20491;-63
2023/10/19 07:37:28;;;;;;;17.80;7.50;;;11.70;98.00;;;;;;5094351;28;20465;-63
2023/10/19 07:39:57;;;;;;;14.90;6.80;;;11.70;98.00;;;;;;5094536;28;20820;-63
2023/10/19 07:42:26;;;;;;;11.93;5.90;;;11.90;98.00;;;;;;5094143;28;20458;-63
2023/10/19 07:44:54;;;;;;;10.20;5.90;;;11.90;98.00;;;;;;5094233;28;20489;-64
2023/10/19 07:47:21;;;;;;;14.23;6.53;;;11.90;98.00;;;;;;5094214;28;20968;-63
2023/10/19 07:49:52;;;;;;;14.03;6.80;;;11.90;98.00;;;;;;5094165;28;20445;-63
2023/10/19 07:52:19;;;;;;;15.40;7.37;;;12.00;98.00;;;;;;5093057;28;20450;-64
2023/10/19 07:54:46;;;;;;;15.37;7.40;;;12.20;98.00;;;;;;5094137;28;20455;-62
2023/10/19 07:57:13;;;;;;;17.67;7.90;;;12.40;98.00;;;;;;5094196;28;20835;-63
2023/10/19 07:59:42;;;;;;;22.17;9.20;;;12.40;98.00;;;;;;5094402;28;20448;-63
2023/10/19 08:02:10;;;;;;;17.07;7.93;;;12.40;98.00;;;;;;5094165;28;20468;-63
2023/10/19 08:04:37;;;;;;;25.67;10.27;;;12.40;98.00;;;;;;5092907;28;20933;-63
2023/10/19 08:07:04;;;;;;;18.13;8.20;;;12.40;98.00;;;;;;5094096;28;20450;-63
2023/10/19 08:09:35;;;;;;;17.37;8.30;;;12.50;98.00;;;;;;5093943;28;21190;-63
2023/10/19 08:12:05;;;;;;;17.00;8.23;;;12.40;98.00;;;;;;5094020;28;20557;-62
2023/10/19 08:14:33;;;;;;;16.77;7.97;;;12.50;98.00;;;;;;5093738;28;20453;-63
2023/10/19 08:17:01;;;;;;;21.70;8.30;;;12.50;98.00;;;;;;5093628;28;20452;-63
2023/10/19 08:19:30;;;;;;;18.90;8.30;;;12.60;98.00;;;;;;5093671;28;20484;-63
2023/10/19 08:21:58;;;;;;;17.27;7.97;;;12.70;98.00;;;;;;5093560;28;20454;-63
2023/10/19 08:24:26;;;;;;;21.80;8.77;;;12.70;98.00;;;;;;5093412;28;20570;-63
2023/10/19 08:26:56;;;;;;;18.47;8.13;;;12.80;98.00;;;;;;5091465;28;20507;-63
2023/10/19 08:29:23;;;;;;;18.30;8.23;;;12.90;98.00;;;;;;5093605;28;20453;-63
2023/10/19 08:31:51;;;;;;;15.90;8.13;;;13.00;98.00;;;;;;5093340;28;20452;-63
2023/10/19 08:34:31;;;;;;;17.83;7.70;;;13.20;98.00;;;;;;5093420;28;20475;-63
2023/10/19 08:37:17;;;;;;;12.00;7.00;;;13.30;98.00;;;;;;5091924;28;20481;-62
2023/10/19 08:39:50;;;;;;;16.53;7.53;;;13.30;98.00;;;;;;5093089;28;20469;-63
2023/10/19 08:42:17;;;;;;;17.97;7.93;;;13.30;98.00;;;;;;5092580;28;20454;-63
2023/10/19 08:44:45;;;;;;;18.50;8.53;;;13.30;98.00;;;;;;5092995;28;20512;-62
2023/10/19 08:47:12;;;;;;;17.30;7.63;;;13.40;98.00;;;;;;5093034;28;20457;-63
2023/10/19 08:49:41;;;;;;;16.77;7.60;;;13.40;98.00;;;;;;5092984;28;20439;-62
2023/10/19 08:52:09;;;;;;;18.90;8.70;;;13.40;98.00;;;;;;5093006;28;20546;-63
2023/10/19 08:54:36;;;;;;;18.80;8.50;;;13.50;98.00;;;;;;5092835;28;20848;-63
2023/10/19 08:57:03;;;;;;;16.60;8.70;;;13.60;98.00;;;;;;5092824;28;20448;-63
2023/10/19 08:59:31;;;;;;;16.53;7.97;;;13.70;98.00;;;;;;5092732;28;20455;-63
2023/10/19 09:02:06;;;;;;;18.77;7.90;;;13.80;98.00;;;;;;5092657;28;20463;-63
2023/10/19 09:04:33;;;;;;;11.80;6.27;;;13.90;98.00;;;;;;5092503;28;20492;-63
2023/10/19 09:07:08;;;;;;;12.03;6.23;;;14.00;98.00;;;;;;5092495;28;20449;-63
2023/10/19 09:09:39;;;;;;;11.77;6.23;;;14.30;98.00;;;;;;5092756;28;20457;-63
2023/10/19 09:12:07;;;;;;;10.80;5.67;;;14.40;98.00;;;;;;5092715;28;20532;-63
2023/10/19 09:14:41;;;;;;;15.20;5.97;;;14.70;98.00;;;;;;5092755;28;20939;-63
2023/10/19 09:17:09;;;;;;;12.60;6.50;;;14.70;98.00;;;;;;5092624;28;20453;-64
2023/10/19 09:19:41;;;;;;;10.77;6.30;;;15.00;98.00;;;;;;5092441;28;20442;-63
2023/10/19 09:22:18;;;;;;;14.67;6.53;;;15.10;98.00;;;;;;5092402;28;20541;-64
2023/10/19 09:24:49;;;;;;;17.40;8.70;;;15.20;98.00;;;;;;5092306;28;20487;-62
2023/10/19 09:27:18;;;;;;;17.67;8.60;;;15.10;98.00;;;;;;5092411;28;20453;-63
2023/10/19 09:29:45;;;;;;;13.37;7.10;;;15.10;98.00;;;;;;5092169;28;20811;-63
2023/10/19 09:32:13;;;;;;;14.10;7.30;;;15.00;98.00;;;;;;5092401;28;20454;-63
2023/10/19 09:34:43;;;;;;;15.10;7.57;;;14.90;98.00;;;;;;5092213;28;20457;-64
2023/10/19 09:37:12;;;;;;;11.10;6.03;;;15.00;98.00;;;;;;5092177;28;20460;-64
2023/10/19 09:39:43;;;;;;;14.40;6.50;;;15.00;98.00;;;;;;5090944;28;21012;-64
2023/10/19 09:42:12;;;;;;;18.50;7.37;;;15.20;98.00;;;;;;5092169;28;20446;-64
2023/10/19 09:44:43;;;;;;;14.07;7.57;;;15.20;98.00;;;;;;5092152;28;20482;-63
2023/10/19 09:47:13;;;;;;;14.73;6.93;;;15.40;98.00;;;;;;5092880;28;20453;-64
2023/10/19 09:49:42;;;;;;;15.03;7.03;;;15.40;98.00;;;;;;5090934;28;20541;-64
2023/10/19 09:52:13;;;;;;;13.27;6.87;;;15.50;98.00;;;;;;5092048;28;20451;-64
2023/10/19 09:54:56;;;;;;;13.53;7.03;;;15.50;98.00;;;;;;5091898;28;20459;-63
2023/10/19 09:57:42;;;;;;;14.80;7.17;;;15.50;98.00;;;;;;5091890;28;20486;-63
2023/10/19 10:00:11;;;;;;;15.20;7.10;;;15.60;98.00;;;;;;5091830;28;20939;-63
2023/10/19 10:02:41;;;;;;;15.03;8.03;;;15.70;98.00;;;;;;5091439;28;20459;-64
2023/10/19 10:05:41;;;;;;;13.40;7.40;;;15.80;98.00;;;;;;5091545;28;20522;-63
2023/10/19 10:08:33;;;;;;;15.00;7.53;;;15.80;98.00;;;;;;5091484;28;20450;-63
2023/10/19 10:11:21;;;;;;;16.57;8.00;;;15.90;98.00;;;;;;5091624;28;20448;-63
2023/10/19 10:13:52;;;;;;;13.70;7.00;;;15.80;98.00;;;;;;5091559;28;20500;-64
2023/10/19 10:16:22;;;;;;;13.20;6.73;;;15.80;98.00;;;;;;5091515;28;20475;-63
2023/10/19 10:18:51;;;;;;;13.80;7.20;;;15.80;98.00;;;;;;5091520;28;20826;-63
2023/10/19 10:21:20;;;;;;;22.47;7.33;;;15.80;98.00;;;;;;5091473;28;20543;-63
2023/10/19 10:23:54;;;;;;;13.97;7.27;;;16.00;98.00;;;;;;5091201;28;21021;-63
2023/10/19 10:26:24;;;;;;;13.90;7.37;;;16.10;98.00;;;;;;5091336;28;20455;-63
2023/10/19 10:29:14;;;;;;;13.77;6.70;;;16.00;98.00;;;;;;5091569;28;20462;-63
2023/10/19 10:31:46;;;;;;;13.33;7.40;;;16.00;98.00;;;;;;5091234;28;20482;-63
2023/10/19 10:34:43;;;;;;;16.97;8.17;;;16.00;98.00;;;;;;5091068;28;20447;-63
2023/10/19 10:37:13;;;;;;;15.13;8.10;;;15.90;98.00;;;;;;5091095;28;21014;-63
2023/10/19 10:39:44;;;;;;;16.53;7.60;;;15.90;98.00;;;;;;5091479;28;20520;-63
2023/10/19 10:42:12;;;;;;;14.40;7.70;;;15.80;98.00;;;;;;5091125;28;20946;-63
2023/10/19 10:44:40;;;;;;;13.03;6.60;;;15.80;98.00;;;;;;5091138;28;20793;-63
2023/10/19 10:47:09;;;;;;;17.40;7.97;;;15.90;98.00;;;;;;5091079;28;20479;-64
2023/10/19 10:49:49;;;;;;;12.90;6.90;;;15.90;98.00;;;;;;5092289;28;20459;-64
2023/10/19 10:52:25;;;;;;;14.37;7.87;;;15.90;98.00;;;;;;5095213;28;20459;-64
2023/10/19 10:54:55;;;;;;;14.00;6.80;;;16.00;98.00;;;;;;5095666;28;20447;-63
2023/10/19 10:57:23;;;;;;;14.20;6.73;;;16.10;98.00;;;;;;5095092;28;20439;-63
2023/10/19 11:00:03;;;;;;;13.37;7.63;;;16.40;98.00;;;;;;5095274;28;20455;-63
2023/10/19 11:02:30;;;;;;;13.97;6.87;;;16.40;98.00;;;;;;5095004;28;20451;-64
2023/10/19 11:05:05;;;;;;;17.13;7.40;;;16.40;98.00;;;;;;5093768;28;20993;-62
2023/10/19 11:07:32;;;;;;;12.57;6.20;;;16.50;98.00;;;;;;5095028;28;20534;-63
2023/10/19 11:10:01;;;;;;;11.63;6.30;;;16.50;98.00;;;;;;5094884;28;20452;-65
2023/10/19 11:12:29;;;;;;;14.33;7.17;;;16.60;98.00;;;;;;5094943;28;20451;-63
2023/10/19 11:14:57;;;;;;;14.13;7.23;;;16.70;98.00;;;;;;5094833;28;20496;-64
2023/10/19 11:17:28;;;;;;;12.93;6.77;;;16.70;98.00;;;;;;5094787;28;20454;-64
2023/10/19 11:19:57;;;;;;;14.60;6.77;;;16.80;98.00;;;;;;5094808;28;20452;-63
2023/10/19 11:22:26;;;;;;;12.90;6.73;;;16.90;98.00;;;;;;5094700;28;20501;-64
2023/10/19 11:24:53;;;;;;;12.43;6.00;;;16.80;98.00;;;;;;5094653;28;20887;-63
2023/10/19 11:27:28;;;;;;;14.53;6.83;;;16.70;98.00;;;;;;5095096;28;20451;-64
2023/10/19 11:29:57;;;;;;;13.70;7.47;;;16.80;98.00;;;;;;5095168;28;20493;-64
2023/10/19 11:32:25;;;;;;;11.73;6.57;;;16.60;98.00;;;;;;5094719;28;20542;-63
2023/10/19 11:34:52;;;;;;;11.33;6.20;;;16.50;98.00;;;;;;5094635;28;20505;-63
2023/10/19 11:37:19;;;;;;;17.20;6.23;;;16.50;98.00;;;;;;5094277;28;20459;-63
2023/10/19 11:39:47;;;;;;;19.57;6.60;;;16.40;98.00;;;;;;5094472;28;20813;-63
2023/10/19 11:42:15;;;;;;;10.03;5.73;;;16.30;98.00;;;;;;5094333;28;20446;-63
2023/10/19 11:44:43;;;;;;;11.37;5.80;;;16.30;98.00;;;;;;5094284;28;20490;-63
2023/10/19 11:47:10;;;;;;;9.83;5.20;;;16.20;98.00;;;;;;5094104;28;20455;-63
2023/10/19 11:49:37;;;;;;;8.07;4.73;;;16.10;98.00;;;;;;5094417;28;20471;-63
2023/10/19 11:52:06;;;;;;;11.83;6.00;;;16.10;98.00;;;;;;5094060;28;20958;-63
2023/10/19 11:54:34;;;;;;;8.00;5.30;;;16.10;98.00;;;;;;5094192;28;20601;-62
2023/10/19 11:57:01;;;;;;;12.60;6.70;;;16.10;98.00;;;;;;5092935;28;20455;-63
2023/10/19 11:59:29;;;;;;;20.20;7.40;;;16.10;98.00;;;;;;5094012;28;20452;-63
2023/10/19 12:01:58;;;;;;;11.60;6.73;;;16.10;98.00;;;;;;5092469;28;20452;-64
2023/10/19 12:04:26;;;;;;;11.50;6.80;;;16.10;98.00;;;;;;5092650;28;20479;-63
2023/10/19 12:06:53;;;;;;;13.40;5.90;;;16.10;98.00;;;;;;5093890;28;20447;-63
2023/10/19 12:09:24;;;;;;;14.17;8.27;;;16.20;98.00;;;;;;5093767;28;20457;-62
2023/10/19 12:11:53;;;;;;;14.67;7.13;;;16.20;98.00;;;;;;5094169;28;20826;-62
2023/10/19 12:14:21;;;;;;;12.77;7.87;;;16.30;98.00;;;;;;5093767;28;20942;-63
2023/10/19 12:16:48;;;;;;;13.53;7.20;;;16.30;98.00;;;;;;5093583;28;20475;-63
2023/10/19 12:19:18;;;;;;;11.83;6.87;;;16.30;98.00;;;;;;5093711;28;20447;-64
2023/10/19 12:21:45;;;;;;;12.63;7.27;;;16.20;98.00;;;;;;5093483;28;20452;-63
2023/10/19 12:24:15;;;;;;;14.30;7.60;;;16.30;98.00;;;;;;5093423;28;20475;-63
2023/10/19 12:26:42;;;;;;;16.97;7.47;;;16.30;98.00;;;;;;5093649;28;20459;-64
2023/10/19 12:29:11;;;;;;;12.73;7.10;;;16.30;98.00;;;;;;5093434;28;20448;-63
2023/10/19 12:31:39;;;;;;;12.97;6.50;;;16.50;98.00;;;;;;5093401;28;20883;-63
2023/10/19 12:34:07;;;;;;;10.53;5.77;;;16.50;98.00;;;;;;5093362;28;20538;-63
2023/10/19 12:36:36;;;;;;;13.77;6.97;;;16.50;98.00;;;;;;5093193;28;20448;-62
2023/10/19 12:39:06;;;;;;;13.27;6.60;;;16.60;98.00;;;;;;5093372;28;20795;-63
2023/10/19 12:41:33;;;;;;;11.17;6.40;;;16.60;98.00;;;;;;5093201;28;20822;-63
2023/10/19 12:44:02;;;;;;;11.13;5.10;;;16.50;98.00;;;;;;5093152;28;20443;-63
2023/10/19 12:46:30;;;;;;;8.77;5.20;;;16.50;98.00;;;;;;5093027;28;20440;-63
2023/10/19 12:48:57;;;;;;;9.23;4.33;;;16.60;98.00;;;;;;5093231;28;20498;-63
2023/10/19 12:51:26;;;;;;;5.50;3.87;;;16.60;98.00;;;;;;5092883;28;20452;-62
2023/10/19 12:53:55;;;;;;;8.03;4.87;;;16.60;98.00;;;;;;5093042;28;20980;-63
2023/10/19 12:56:24;;;;;;;5.83;3.83;;;16.60;98.00;;;;;;5092777;28;20997;-62